createdAt,value
2022-11-20T00:00:50.682Z,24.67
2022-11-20T00:03:17.752Z,27.40
2022-11-20T00:05:45.131Z,23.00
2022-11-20T00:08:12.293Z,28.50
2022-11-20T00:10:41.017Z,25.30
2022-11-20T00:13:08.514Z,31.53
2022-11-20T00:15:35.766Z,31.60
2022-11-20T00:18:02.889Z,24.67
2022-11-20T00:20:30.004Z,28.23
2022-11-20T00:22:57.155Z,27.00
2022-11-20T00:25:24.253Z,29.10
2022-11-20T00:27:52.722Z,29.20
2022-11-20T00:30:19.966Z,32.93
2022-11-20T00:32:47.067Z,22.27
2022-11-20T00:35:14.166Z,31.33
2022-11-20T00:37:41.253Z,28.50
2022-11-20T00:40:08.886Z,29.17
2022-11-20T00:42:36.420Z,30.27
2022-11-20T00:45:05.264Z,29.43
2022-11-20T00:47:32.381Z,28.13
2022-11-20T00:49:59.460Z,30.17
2022-11-20T00:52:26.558Z,27.60
2022-11-20T00:54:53.674Z,25.53
2022-11-20T00:57:20.747Z,24.40
2022-11-20T00:59:47.858Z,28.47
2022-11-20T01:02:16.324Z,26.50
2022-11-20T01:04:43.446Z,27.93
2022-11-20T01:07:10.559Z,30.60
2022-11-20T01:09:37.681Z,27.63
2022-11-20T01:12:04.976Z,27.13
2022-11-20T01:14:32.073Z,26.87
2022-11-20T01:16:59.155Z,28.50
2022-11-20T01:19:27.613Z,27.93
2022-11-20T01:21:55.498Z,24.77
2022-11-20T01:24:23.046Z,34.57
2022-11-20T01:26:51.117Z,25.50
2022-11-20T01:29:19.986Z,31.67
2022-11-20T01:31:47.420Z,24.97
2022-11-20T01:34:15.704Z,25.53
2022-11-20T01:36:44.366Z,30.57
2022-11-20T01:39:12.644Z,28.40
2022-11-20T01:41:39.826Z,26.80
2022-11-20T01:44:06.931Z,29.23
2022-11-20T01:46:35.532Z,26.73
2022-11-20T01:49:04.166Z,25.07
2022-11-20T01:51:33.392Z,37.40
2022-11-20T01:54:02.668Z,29.10
2022-11-20T01:56:31.462Z,23.53
2022-11-20T01:59:00.237Z,31.10
2022-11-20T02:01:27.398Z,33.33
2022-11-20T02:03:54.613Z,25.70
2022-11-20T02:06:25.009Z,28.10
2022-11-20T02:08:52.472Z,30.60
2022-11-20T02:11:20.947Z,28.33
2022-11-20T02:13:48.358Z,26.07
2022-11-20T02:16:17.355Z,23.97
2022-11-20T02:18:44.962Z,28.73
2022-11-20T02:21:16.705Z,25.33
2022-11-20T02:23:54.577Z,25.37
2022-11-20T02:26:23.596Z,29.13
2022-11-20T02:28:51.255Z,23.97
2022-11-20T02:31:18.347Z,24.13
2022-11-20T02:33:45.439Z,27.07
2022-11-20T02:36:15.299Z,29.30
2022-11-20T02:38:42.953Z,26.23
2022-11-20T02:41:11.348Z,30.50
2022-11-20T02:43:38.513Z,27.37
2022-11-20T02:46:08.054Z,27.17
2022-11-20T02:48:35.465Z,27.60
2022-11-20T02:51:02.582Z,30.47
2022-11-20T02:53:29.877Z,32.30
2022-11-20T02:55:56.980Z,28.70
2022-11-20T02:58:25.529Z,30.13
2022-11-20T03:00:53.902Z,25.00
2022-11-20T03:03:20.993Z,29.63
2022-11-20T03:05:48.112Z,34.03
2022-11-20T03:08:15.220Z,26.17
2022-11-20T03:10:42.335Z,27.23
2022-11-20T03:13:09.407Z,27.90
2022-11-20T03:15:38.598Z,25.57
2022-11-20T03:18:05.986Z,27.40
2022-11-20T03:20:33.912Z,28.97
2022-11-20T03:23:01.086Z,24.10
2022-11-20T03:25:28.510Z,26.60
2022-11-20T03:27:55.643Z,28.17
2022-11-20T03:30:27.625Z,27.57
2022-11-20T03:32:58.884Z,29.83
2022-11-20T03:35:25.980Z,30.93
2022-11-20T03:37:53.087Z,28.63
2022-11-20T03:40:20.164Z,22.97
2022-11-20T03:42:47.277Z,27.50
2022-11-20T03:45:14.561Z,27.70
2022-11-20T03:47:41.675Z,32.57
2022-11-20T03:50:10.767Z,23.67
2022-11-20T03:52:37.860Z,23.00
2022-11-20T03:55:05.276Z,27.23
2022-11-20T03:57:32.382Z,23.57
2022-11-20T03:59:59.571Z,21.07
2022-11-20T04:02:26.665Z,29.30
2022-11-20T04:04:53.787Z,26.73
2022-11-20T04:07:22.284Z,22.53
2022-11-20T04:09:49.427Z,25.70
2022-11-20T04:12:16.546Z,25.73
2022-11-20T04:14:43.628Z,29.70
2022-11-20T04:17:10.707Z,23.97
2022-11-20T04:19:37.812Z,25.70
2022-11-20T04:22:04.898Z,26.80
2022-11-20T04:24:33.341Z,22.03
2022-11-20T04:27:00.424Z,28.20
2022-11-20T04:29:27.537Z,29.27
2022-11-20T04:31:54.612Z,28.13
2022-11-20T04:34:21.765Z,27.53
2022-11-20T04:36:48.838Z,25.87
2022-11-20T04:39:16.445Z,21.67
2022-11-20T04:41:44.893Z,27.23
2022-11-20T04:44:12.000Z,22.20
2022-11-20T04:46:39.780Z,25.40
2022-11-20T04:49:07.225Z,25.43
2022-11-20T04:51:34.414Z,27.10
2022-11-20T04:54:01.592Z,26.50
2022-11-20T04:56:28.720Z,29.43
2022-11-20T04:58:57.231Z,27.23
2022-11-20T05:01:25.292Z,31.17
2022-11-20T05:03:52.998Z,23.27
2022-11-20T05:06:21.618Z,29.43
2022-11-20T05:08:48.941Z,27.40
2022-11-20T05:11:17.294Z,30.90
2022-11-20T05:13:44.384Z,28.50
2022-11-20T05:16:13.933Z,26.73
2022-11-20T05:18:41.917Z,29.67
2022-11-20T05:21:09.751Z,30.20
2022-11-20T05:23:37.210Z,28.93
2022-11-20T05:26:04.338Z,31.90
2022-11-20T05:28:31.883Z,29.17
2022-11-20T05:31:05.384Z,27.53
2022-11-20T05:33:33.811Z,30.60
2022-11-20T05:36:00.881Z,27.70
2022-11-20T05:38:27.990Z,32.73
2022-11-20T05:40:55.051Z,29.47
2022-11-20T05:43:22.152Z,33.03
2022-11-20T05:45:53.491Z,25.73
2022-11-20T05:48:20.584Z,31.07
2022-11-20T05:50:49.114Z,34.63
2022-11-20T05:53:16.205Z,31.17
2022-11-20T05:55:43.370Z,35.07
2022-11-20T05:58:10.474Z,30.20
2022-11-20T06:00:37.627Z,30.00
2022-11-20T06:03:04.860Z,34.47
2022-11-20T06:05:31.993Z,34.57
2022-11-20T06:08:01.866Z,30.50
2022-11-20T06:10:28.971Z,30.90
2022-11-20T06:12:58.795Z,30.67
2022-11-20T06:15:26.114Z,29.00
2022-11-20T06:17:53.652Z,33.50
2022-11-20T06:20:20.747Z,40.70
2022-11-20T06:22:47.836Z,30.93
2022-11-20T06:25:16.300Z,34.60
2022-11-20T06:27:43.366Z,29.87
2022-11-20T06:30:11.169Z,32.17
2022-11-20T06:32:38.267Z,28.47
2022-11-20T06:35:05.807Z,30.33
2022-11-20T06:37:32.901Z,30.20
2022-11-20T06:40:00.003Z,31.67
2022-11-20T06:42:28.438Z,34.33
2022-11-20T06:44:55.533Z,31.87
2022-11-20T06:47:22.641Z,28.13
2022-11-20T06:49:49.705Z,34.43
2022-11-20T06:52:16.815Z,26.20
2022-11-20T06:54:43.918Z,33.43
2022-11-20T06:57:11.049Z,31.80
2022-11-20T06:59:39.462Z,37.13
2022-11-20T07:02:06.526Z,27.37
2022-11-20T07:04:33.620Z,35.77
2022-11-20T07:07:00.728Z,30.90
2022-11-20T07:09:28.083Z,31.77
2022-11-20T07:11:55.344Z,33.20
2022-11-20T07:14:22.443Z,41.60
2022-11-20T07:16:50.873Z,31.33
2022-11-20T07:19:18.055Z,34.80
2022-11-20T07:21:45.216Z,31.20
2022-11-20T07:24:12.324Z,35.17
2022-11-20T07:26:39.704Z,38.83
2022-11-20T07:29:06.886Z,34.83
2022-11-20T07:31:33.977Z,34.53
2022-11-20T07:34:02.574Z,34.43
2022-11-20T07:36:29.683Z,38.77
2022-11-20T07:38:56.766Z,35.63
2022-11-20T07:41:23.835Z,38.13
2022-11-20T07:43:50.942Z,35.27
2022-11-20T07:46:18.101Z,32.40
2022-11-20T07:48:45.162Z,40.17
2022-11-20T07:51:13.587Z,33.83
2022-11-20T07:53:40.678Z,36.40
2022-11-20T07:56:08.063Z,33.60
2022-11-20T07:58:35.163Z,36.17
2022-11-20T08:01:05.660Z,38.60
2022-11-20T08:03:32.857Z,36.57
2022-11-20T08:06:00.245Z,37.07
2022-11-20T08:08:32.208Z,30.67
2022-11-20T08:11:00.882Z,32.30
2022-11-20T08:13:27.976Z,28.93
2022-11-20T08:15:55.040Z,26.80
2022-11-20T08:18:37.450Z,28.37
2022-11-20T08:21:05.113Z,27.83
2022-11-20T08:23:33.689Z,28.13
2022-11-20T08:26:00.794Z,34.63
2022-11-20T08:28:27.902Z,26.53
2022-11-20T08:30:59.289Z,32.10
2022-11-20T08:33:26.370Z,31.83
2022-11-20T08:35:53.436Z,30.53
2022-11-20T08:38:20.547Z,28.73
2022-11-20T08:40:48.985Z,28.00
2022-11-20T08:43:16.066Z,27.20
2022-11-20T08:45:43.147Z,24.90
2022-11-20T08:48:10.233Z,26.40
2022-11-20T08:50:37.348Z,26.83
2022-11-20T08:53:04.745Z,23.87
2022-11-20T08:55:31.858Z,25.57
2022-11-20T08:58:04.420Z,26.80
2022-11-20T09:00:31.633Z,25.17
2022-11-20T09:02:58.772Z,32.60
2022-11-20T09:05:25.940Z,23.30
2022-11-20T09:07:53.045Z,22.47
2022-11-20T09:10:24.644Z,26.17
2022-11-20T09:12:51.928Z,26.07
2022-11-20T09:15:20.411Z,26.83
2022-11-20T09:17:51.872Z,24.77
2022-11-20T09:20:18.982Z,24.90
2022-11-20T09:22:46.047Z,29.60
2022-11-20T09:25:13.208Z,25.57
2022-11-20T09:27:40.299Z,28.60
2022-11-20T09:30:08.053Z,27.00
2022-11-20T09:32:36.552Z,25.50
2022-11-20T09:35:03.745Z,31.20
2022-11-20T09:37:30.836Z,25.33
2022-11-20T09:39:57.919Z,23.77
2022-11-20T09:42:29.368Z,23.17
2022-11-20T09:45:03.333Z,25.07
2022-11-20T09:47:35.997Z,29.97
2022-11-20T09:50:13.389Z,23.70
2022-11-20T09:52:46.312Z,27.10
2022-11-20T09:55:14.622Z,26.47
2022-11-20T09:57:43.115Z,22.63
2022-11-20T10:00:12.583Z,24.40
2022-11-20T10:02:42.680Z,24.67
2022-11-20T10:05:14.181Z,22.97
2022-11-20T10:07:43.189Z,21.83
2022-11-20T10:10:15.924Z,22.80
2022-11-20T10:12:50.519Z,24.10
2022-11-20T10:15:26.832Z,18.80
2022-11-20T10:18:11.003Z,20.80
2022-11-20T10:20:45.279Z,32.20
2022-11-20T10:23:30.253Z,28.60
2022-11-20T10:26:02.351Z,25.90
2022-11-20T10:28:44.650Z,25.60
2022-11-20T10:31:29.173Z,24.83
2022-11-20T10:34:11.462Z,20.73
2022-11-20T10:36:45.348Z,21.47
2022-11-20T10:39:17.393Z,24.20
2022-11-20T10:41:45.781Z,21.97
2022-11-20T10:44:14.604Z,28.10
2022-11-20T10:46:44.634Z,26.17
2022-11-20T10:49:14.124Z,22.43
2022-11-20T10:51:47.852Z,24.50
2022-11-20T10:54:20.487Z,31.40
2022-11-20T10:56:50.160Z,26.07
2022-11-20T10:59:32.356Z,24.10
2022-11-20T11:02:02.647Z,24.90
2022-11-20T11:04:34.813Z,25.90
2022-11-20T11:07:07.077Z,29.40
2022-11-20T11:09:35.878Z,31.27
2022-11-20T11:12:06.922Z,30.20
2022-11-20T11:14:43.100Z,28.87
2022-11-20T11:17:21.131Z,29.00
2022-11-20T11:19:58.076Z,31.87
2022-11-20T11:22:26.621Z,28.93
2022-11-20T11:24:54.125Z,25.57
2022-11-20T11:27:21.229Z,30.63
2022-11-20T11:29:48.336Z,27.50
2022-11-20T11:32:16.704Z,34.23
2022-11-20T11:34:43.815Z,23.97
2022-11-20T11:37:14.624Z,27.57
2022-11-20T11:39:43.856Z,30.40
2022-11-20T11:42:14.657Z,27.37
2022-11-20T11:44:45.637Z,28.27
2022-11-20T11:47:14.737Z,29.87
2022-11-20T11:49:41.853Z,28.47
2022-11-20T11:52:11.971Z,32.57
2022-11-20T11:54:43.562Z,29.63
2022-11-20T11:57:17.446Z,30.33
2022-11-20T11:59:50.741Z,26.30
2022-11-20T12:02:31.111Z,31.23
2022-11-20T12:05:00.311Z,31.70
2022-11-20T12:07:46.170Z,24.43
2022-11-20T12:10:16.906Z,33.00
2022-11-20T12:12:47.006Z,33.87
2022-11-20T12:15:17.857Z,26.43
2022-11-20T12:17:44.955Z,26.13
2022-11-20T12:20:13.435Z,32.87
2022-11-20T12:22:44.781Z,29.43
2022-11-20T12:25:13.488Z,30.83
2022-11-20T12:27:50.730Z,27.80
2022-11-20T12:30:18.203Z,26.67
2022-11-20T12:32:54.905Z,25.73
2022-11-20T12:35:30.873Z,34.23
2022-11-20T12:38:06.813Z,37.70
2022-11-20T12:40:37.191Z,31.47
2022-11-20T12:43:14.574Z,27.63
2022-11-20T12:45:56.536Z,30.90
2022-11-20T12:48:44.940Z,37.67
2022-11-20T12:51:22.058Z,31.10
2022-11-20T12:53:53.229Z,36.70
2022-11-20T12:56:26.987Z,33.10
2022-11-20T12:59:01.170Z,37.73
2022-11-20T13:01:32.547Z,30.87
2022-11-20T13:04:03.297Z,35.83
2022-11-20T13:06:33.600Z,34.13
2022-11-20T13:09:01.091Z,33.97
2022-11-20T13:11:32.396Z,32.83
2022-11-20T13:14:11.771Z,32.37
2022-11-20T13:16:41.673Z,40.07
2022-11-20T13:19:11.856Z,36.50
2022-11-20T13:21:39.941Z,38.53
2022-11-20T13:24:07.294Z,38.13
2022-11-20T13:26:34.447Z,36.03
2022-11-20T13:29:03.958Z,41.33
2022-11-20T13:31:34.277Z,37.13
2022-11-20T13:34:02.747Z,34.93
2022-11-20T13:36:30.750Z,33.10
2022-11-20T13:38:58.026Z,39.63
2022-11-20T13:41:25.587Z,37.00
2022-11-20T13:43:53.717Z,40.67
2022-11-20T13:46:20.811Z,38.87
2022-11-20T13:48:49.321Z,39.10
2022-11-20T13:51:23.839Z,38.13
2022-11-20T13:54:03.456Z,39.03
2022-11-20T13:56:36.142Z,38.03
2022-11-20T13:59:13.509Z,43.47
2022-11-20T14:01:43.760Z,36.87
2022-11-20T14:04:15.733Z,36.43
2022-11-20T14:06:43.769Z,44.90
2022-11-20T14:09:12.473Z,36.33
2022-11-20T14:11:47.368Z,42.03
2022-11-20T14:14:15.710Z,32.50
2022-11-20T14:16:43.060Z,39.03
2022-11-20T14:19:24.798Z,38.57
2022-11-20T14:21:54.357Z,37.17
2022-11-20T14:24:22.199Z,38.83
2022-11-20T14:26:49.907Z,37.67
2022-11-20T14:29:17.967Z,30.67
2022-11-20T14:31:49.893Z,27.30
2022-11-20T14:34:23.206Z,32.03
2022-11-20T14:36:52.387Z,29.67
2022-11-20T14:39:22.115Z,31.33
2022-11-20T14:41:52.208Z,30.13
2022-11-20T14:44:19.476Z,29.93
2022-11-20T14:46:46.737Z,26.93
2022-11-20T14:49:15.133Z,23.00
2022-11-20T14:51:43.587Z,29.30
2022-11-20T14:54:11.487Z,28.50
2022-11-20T14:56:38.663Z,29.70
2022-11-20T14:59:05.753Z,24.17
2022-11-20T15:01:34.149Z,29.80
2022-11-20T15:04:02.125Z,30.00
2022-11-20T15:06:29.382Z,30.83
2022-11-20T15:08:57.841Z,29.60
2022-11-20T15:11:28.907Z,33.13
2022-11-20T15:13:56.044Z,31.77
2022-11-20T15:16:24.287Z,26.23
2022-11-20T15:18:51.584Z,24.87
2022-11-20T15:21:20.016Z,31.53
2022-11-20T15:23:47.189Z,25.93
2022-11-20T15:26:19.854Z,29.83
2022-11-20T15:28:48.018Z,30.03
2022-11-20T15:31:15.869Z,26.17
2022-11-20T15:33:43.047Z,30.20
2022-11-20T15:36:10.388Z,29.17
2022-11-20T15:38:37.537Z,30.80
2022-11-20T15:41:04.623Z,28.23
2022-11-20T15:43:33.061Z,31.60
2022-11-20T15:46:01.373Z,34.17
2022-11-20T15:48:30.607Z,33.20
2022-11-20T15:50:59.521Z,30.67
2022-11-20T15:53:26.764Z,37.23
2022-11-20T15:55:53.882Z,35.20
2022-11-20T15:58:21.017Z,27.63
2022-11-20T16:00:49.451Z,35.27
2022-11-20T16:03:17.437Z,38.00
2022-11-20T16:05:44.757Z,35.07
2022-11-20T16:08:12.212Z,33.70
2022-11-20T16:10:39.731Z,42.30
2022-11-20T16:13:11.056Z,35.03
2022-11-20T16:15:38.162Z,41.83
2022-11-20T16:18:06.678Z,33.27
2022-11-20T16:20:33.936Z,41.43
2022-11-20T16:23:01.023Z,36.53
2022-11-20T16:25:28.602Z,36.53
2022-11-20T16:27:55.711Z,40.03
2022-11-20T16:30:22.798Z,43.83
2022-11-20T16:32:49.898Z,44.17
2022-11-20T16:35:18.447Z,41.83
2022-11-20T16:37:45.570Z,42.30
2022-11-20T16:40:12.990Z,43.33
2022-11-20T16:42:40.095Z,43.33
2022-11-20T16:45:07.569Z,33.90
2022-11-20T16:47:35.040Z,31.53
2022-11-20T16:50:02.332Z,42.00
2022-11-20T16:52:30.781Z,45.00
2022-11-20T16:54:58.005Z,41.67
2022-11-20T16:57:25.158Z,35.97
2022-11-20T16:59:52.225Z,42.30
2022-11-20T17:02:19.314Z,42.60
2022-11-20T17:04:46.380Z,35.73
2022-11-20T17:07:13.546Z,35.20
2022-11-20T17:09:42.010Z,38.07
2022-11-20T17:12:09.117Z,39.23
2022-11-20T17:14:36.208Z,44.60
2022-11-20T17:17:03.309Z,38.83
2022-11-20T17:19:30.390Z,33.37
2022-11-20T17:21:57.516Z,33.13
2022-11-20T17:24:27.821Z,29.80
2022-11-20T17:26:59.977Z,27.03
2022-11-20T17:29:27.048Z,26.63
2022-11-20T17:31:54.591Z,28.67
2022-11-20T17:34:22.304Z,24.03
2022-11-20T17:36:49.653Z,29.30
2022-11-20T17:39:17.784Z,34.73
2022-11-20T17:41:45.185Z,28.93
2022-11-20T17:44:13.766Z,27.80
2022-11-20T17:46:40.912Z,30.03
2022-11-20T17:49:08.058Z,23.67
2022-11-20T17:51:35.375Z,23.97
2022-11-20T17:54:03.876Z,24.70
2022-11-20T17:56:31.462Z,23.20
2022-11-20T17:58:58.764Z,30.50
2022-11-20T18:01:27.257Z,28.50
2022-11-20T18:03:56.524Z,27.47
2022-11-20T18:06:24.509Z,27.27
2022-11-20T18:08:51.837Z,24.20
2022-11-20T18:11:20.053Z,26.37
2022-11-20T18:13:48.090Z,25.17
2022-11-20T18:16:15.195Z,23.10
2022-11-20T18:18:43.609Z,28.70
2022-11-20T18:21:10.709Z,28.90
2022-11-20T18:23:37.776Z,21.30
2022-11-20T18:26:04.862Z,21.50
2022-11-20T18:28:31.977Z,28.47
2022-11-20T18:30:59.029Z,20.03
2022-11-20T18:33:28.496Z,15.33
2022-11-20T18:35:57.084Z,21.30
2022-11-20T18:38:24.376Z,21.70
2022-11-20T18:40:51.471Z,21.17
2022-11-20T18:43:18.616Z,18.47
2022-11-20T18:45:45.711Z,15.90
2022-11-20T18:48:12.824Z,12.23
2022-11-20T18:50:39.877Z,12.40
2022-11-20T18:53:08.303Z,17.07
2022-11-20T18:55:36.300Z,14.20
2022-11-20T18:58:03.428Z,14.40
2022-11-20T19:00:30.501Z,14.23
2022-11-20T19:02:57.601Z,14.47
2022-11-20T19:05:24.721Z,12.83
2022-11-20T19:07:51.815Z,15.23
2022-11-20T19:10:20.904Z,14.00
2022-11-20T19:12:48.045Z,10.60
2022-11-20T19:15:15.159Z,14.47
2022-11-20T19:17:42.284Z,13.77
2022-11-20T19:20:09.756Z,13.00
2022-11-20T19:22:36.852Z,11.77
2022-11-20T19:25:04.115Z,12.70
2022-11-20T19:27:32.559Z,18.50
2022-11-20T19:29:59.694Z,39.10
2022-11-20T19:32:26.779Z,23.77
2022-11-20T19:34:53.873Z,17.30
2022-11-20T19:37:20.967Z,29.33
2022-11-20T19:39:48.384Z,22.73
2022-11-20T19:42:15.457Z,23.50
2022-11-20T19:44:43.913Z,22.80
2022-11-20T19:47:14.461Z,27.50
2022-11-20T19:49:42.042Z,19.10
2022-11-20T19:52:09.137Z,21.37
2022-11-20T19:54:36.217Z,15.73
2022-11-20T19:57:03.325Z,17.73
2022-11-20T19:59:30.420Z,23.43
2022-11-20T20:01:58.909Z,19.53
2022-11-20T20:04:26.089Z,25.57
2022-11-20T20:06:53.188Z,19.00
2022-11-20T20:09:20.281Z,28.73
2022-11-20T20:11:47.397Z,18.33
2022-11-20T20:14:15.731Z,16.30
2022-11-20T20:16:43.194Z,19.53
2022-11-20T20:19:13.570Z,15.90
2022-11-20T20:21:40.691Z,24.97
2022-11-20T20:24:08.313Z,12.40
2022-11-20T20:26:35.398Z,17.73
2022-11-20T20:29:02.504Z,25.30
2022-11-20T20:31:30.283Z,26.70
2022-11-20T20:33:57.404Z,23.63
2022-11-20T20:36:26.401Z,13.23
2022-11-20T20:38:53.504Z,15.17
2022-11-20T20:41:21.111Z,14.80
2022-11-20T20:43:48.287Z,20.47
2022-11-20T20:46:15.390Z,23.53
2022-11-20T20:48:42.473Z,19.00
2022-11-20T20:51:09.536Z,16.97
2022-11-20T20:53:37.996Z,23.47
2022-11-20T20:56:05.285Z,18.53
2022-11-20T20:58:32.407Z,13.60
2022-11-20T21:01:02.047Z,17.70
2022-11-20T21:03:32.882Z,38.60
2022-11-20T21:06:00.208Z,21.43
2022-11-20T21:08:27.360Z,20.53
2022-11-20T21:10:56.598Z,18.23
2022-11-20T21:13:24.269Z,17.73
2022-11-20T21:15:51.803Z,18.57
2022-11-20T21:18:19.605Z,20.93
2022-11-20T21:20:47.182Z,20.43
2022-11-20T21:23:14.253Z,21.20
2022-11-20T21:25:41.336Z,20.97
2022-11-20T21:28:13.152Z,30.10
2022-11-20T21:30:44.009Z,17.87
2022-11-20T21:33:11.122Z,19.47
2022-11-20T21:35:38.206Z,13.60
2022-11-20T21:38:05.298Z,14.80
2022-11-20T21:40:32.400Z,20.20
2022-11-20T21:42:59.471Z,20.40
2022-11-20T21:45:27.925Z,16.47
2022-11-20T21:47:55.534Z,14.83
2022-11-20T21:50:22.628Z,19.27
2022-11-20T21:52:49.694Z,16.63
2022-11-20T21:55:16.783Z,15.50
2022-11-20T21:57:43.887Z,26.03
2022-11-20T22:00:12.239Z,14.63
2022-11-20T22:02:40.688Z,21.23
2022-11-20T22:05:08.205Z,11.40
2022-11-20T22:07:35.457Z,17.83
2022-11-20T22:10:02.701Z,16.27
2022-11-20T22:12:29.762Z,16.30
2022-11-20T22:14:56.865Z,14.50
2022-11-20T22:17:24.001Z,17.00
2022-11-20T22:19:52.408Z,17.50
2022-11-20T22:22:19.532Z,21.93
2022-11-20T22:24:46.623Z,13.93
2022-11-20T22:27:13.731Z,16.93
2022-11-20T22:29:40.829Z,14.10
2022-11-20T22:32:07.894Z,21.43
2022-11-20T22:34:35.001Z,17.33
2022-11-20T22:37:03.415Z,11.30
2022-11-20T22:39:30.490Z,21.90
2022-11-20T22:41:57.593Z,14.70
2022-11-20T22:44:24.859Z,13.50
2022-11-20T22:46:52.081Z,16.77
2022-11-20T22:49:19.145Z,14.03
2022-11-20T22:51:46.242Z,15.60
2022-11-20T22:54:14.720Z,16.50
2022-11-20T22:56:41.911Z,20.37
2022-11-20T22:59:09.476Z,17.03
2022-11-20T23:01:37.247Z,14.57
2022-11-20T23:04:05.080Z,15.43
2022-11-20T23:06:32.544Z,21.47
2022-11-20T23:08:59.605Z,14.73
2022-11-20T23:11:28.700Z,16.73
2022-11-20T23:13:56.568Z,9.93
2022-11-20T23:16:23.654Z,23.50
2022-11-20T23:18:54.075Z,14.03
2022-11-20T23:21:21.152Z,18.47
2022-11-20T23:23:48.801Z,23.07
2022-11-20T23:26:16.660Z,19.20
2022-11-20T23:28:45.459Z,20.10
2022-11-20T23:31:13.280Z,16.30
2022-11-20T23:33:41.396Z,16.07
2022-11-20T23:36:08.801Z,20.70
2022-11-20T23:38:35.879Z,21.10
2022-11-20T23:41:03.028Z,31.83
2022-11-20T23:43:30.135Z,26.60
2022-11-20T23:45:59.883Z,26.23
2022-11-20T23:48:27.846Z,24.40
2022-11-20T23:50:55.183Z,21.67
2022-11-20T23:53:22.404Z,18.83
2022-11-20T23:55:50.290Z,14.97
2022-11-20T23:58:17.770Z,27.00
